sensor_id;sensor_type;location;lat;lon;timestamp;P1;durP1;ratioP1;P2;durP2;ratioP2
28762;SDS011;15918;51.270;6.522;2022-09-13T00:00:30;6.28;;;5.30;;
28762;SDS011;15918;51.270;6.522;2022-09-13T00:02:56;6.82;;;5.35;;
28762;SDS011;15918;51.270;6.522;2022-09-13T00:05:22;5.45;;;4.93;;
28762;SDS011;15918;51.270;6.522;2022-09-13T00:07:47;6.68;;;5.50;;
28762;SDS011;15918;51.270;6.522;2022-09-13T00:10:13;7.53;;;5.90;;
28762;SDS011;15918;51.270;6.522;2022-09-13T00:12:39;5.88;;;5.28;;
28762;SDS011;15918;51.270;6.522;2022-09-13T00:15:05;6.03;;;5.00;;
28762;SDS011;15918;51.270;6.522;2022-09-13T00:17:31;5.78;;;5.28;;
28762;SDS011;15918;51.270;6.522;2022-09-13T00:19:56;5.47;;;4.53;;
28762;SDS011;15918;51.270;6.522;2022-09-13T00:22:22;7.20;;;5.15;;
28762;SDS011;15918;51.270;6.522;2022-09-13T00:24:48;5.53;;;4.63;;
28762;SDS011;15918;51.270;6.522;2022-09-13T00:27:13;5.78;;;5.18;;
28762;SDS011;15918;51.270;6.522;2022-09-13T00:29:39;5.63;;;4.97;;
28762;SDS011;15918;51.270;6.522;2022-09-13T00:32:04;5.13;;;4.63;;
28762;SDS011;15918;51.270;6.522;2022-09-13T00:34:30;5.50;;;4.18;;
28762;SDS011;15918;51.270;6.522;2022-09-13T00:36:55;6.28;;;5.07;;
28762;SDS011;15918;51.270;6.522;2022-09-13T00:39:21;6.68;;;5.45;;
28762;SDS011;15918;51.270;6.522;2022-09-13T00:41:47;6.22;;;5.05;;
28762;SDS011;15918;51.270;6.522;2022-09-13T00:47:09;6.32;;;4.78;;
28762;SDS011;15918;51.270;6.522;2022-09-13T00:49:38;8.57;;;4.75;;
28762;SDS011;15918;51.270;6.522;2022-09-13T00:52:07;7.10;;;4.88;;
28762;SDS011;15918;51.270;6.522;2022-09-13T00:54:38;5.95;;;4.55;;
28762;SDS011;15918;51.270;6.522;2022-09-13T00:57:07;6.68;;;5.30;;
28762;SDS011;15918;51.270;6.522;2022-09-13T00:59:44;5.35;;;4.28;;
28762;SDS011;15918;51.270;6.522;2022-09-13T01:02:15;4.88;;;4.35;;
28762;SDS011;15918;51.270;6.522;2022-09-13T01:04:41;5.10;;;4.32;;
28762;SDS011;15918;51.270;6.522;2022-09-13T01:07:08;4.40;;;4.00;;
28762;SDS011;15918;51.270;6.522;2022-09-13T01:09:38;4.75;;;4.13;;
28762;SDS011;15918;51.270;6.522;2022-09-13T01:14:51;4.32;;;3.92;;
28762;SDS011;15918;51.270;6.522;2022-09-13T01:17:19;4.20;;;3.75;;
28762;SDS011;15918;51.270;6.522;2022-09-13T01:19:45;4.82;;;4.20;;
28762;SDS011;15918;51.270;6.522;2022-09-13T01:28:04;4.90;;;4.07;;
28762;SDS011;15918;51.270;6.522;2022-09-13T01:33:38;4.43;;;4.03;;
28762;SDS011;15918;51.270;6.522;2022-09-13T01:39:05;4.05;;;3.65;;
28762;SDS011;15918;51.270;6.522;2022-09-13T01:47:02;4.67;;;3.90;;
28762;SDS011;15918;51.270;6.522;2022-09-13T01:49:59;4.50;;;3.97;;
28762;SDS011;15918;51.270;6.522;2022-09-13T01:53:19;6.53;;;3.60;;
28762;SDS011;15918;51.270;6.522;2022-09-13T01:56:01;4.00;;;3.33;;
28762;SDS011;15918;51.270;6.522;2022-09-13T02:01:35;4.35;;;3.65;;
28762;SDS011;15918;51.270;6.522;2022-09-13T02:04:24;7.53;;;4.00;;
28762;SDS011;15918;51.270;6.522;2022-09-13T02:09:37;6.38;;;3.45;;
28762;SDS011;15918;51.270;6.522;2022-09-13T02:12:07;4.15;;;3.50;;
28762;SDS011;15918;51.270;6.522;2022-09-13T02:14:39;4.45;;;3.38;;
28762;SDS011;15918;51.270;6.522;2022-09-13T02:17:09;4.07;;;3.53;;
28762;SDS011;15918;51.270;6.522;2022-09-13T02:19:58;4.22;;;3.55;;
28762;SDS011;15918;51.270;6.522;2022-09-13T02:22:32;4.97;;;3.30;;
28762;SDS011;15918;51.270;6.522;2022-09-13T02:25:05;4.07;;;3.72;;
28762;SDS011;15918;51.270;6.522;2022-09-13T02:27:42;3.95;;;3.55;;
28762;SDS011;15918;51.270;6.522;2022-09-13T02:30:12;3.42;;;3.15;;
28762;SDS011;15918;51.270;6.522;2022-09-13T02:32:40;4.82;;;3.50;;
28762;SDS011;15918;51.270;6.522;2022-09-13T02:35:13;3.92;;;3.03;;
28762;SDS011;15918;51.270;6.522;2022-09-13T02:38:00;8.60;;;3.92;;
28762;SDS011;15918;51.270;6.522;2022-09-13T02:40:36;3.72;;;3.28;;
28762;SDS011;15918;51.270;6.522;2022-09-13T02:43:11;4.60;;;3.13;;
28762;SDS011;15918;51.270;6.522;2022-09-13T02:45:46;4.55;;;3.60;;
28762;SDS011;15918;51.270;6.522;2022-09-13T02:48:55;4.72;;;3.17;;
28762;SDS011;15918;51.270;6.522;2022-09-13T02:52:43;4.10;;;3.25;;
28762;SDS011;15918;51.270;6.522;2022-09-13T02:54:58;4.63;;;3.65;;
28762;SDS011;15918;51.270;6.522;2022-09-13T03:00:02;3.42;;;3.13;;
28762;SDS011;15918;51.270;6.522;2022-09-13T03:02:30;3.60;;;3.20;;
28762;SDS011;15918;51.270;6.522;2022-09-13T03:04:58;5.22;;;3.80;;
28762;SDS011;15918;51.270;6.522;2022-09-13T03:07:27;4.22;;;3.40;;
28762;SDS011;15918;51.270;6.522;2022-09-13T03:09:53;3.22;;;2.92;;
28762;SDS011;15918;51.270;6.522;2022-09-13T03:37:24;3.58;;;3.28;;
28762;SDS011;15918;51.270;6.522;2022-09-13T03:39:59;3.95;;;3.60;;
28762;SDS011;15918;51.270;6.522;2022-09-13T03:45:00;4.13;;;3.65;;
28762;SDS011;15918;51.270;6.522;2022-09-13T03:47:29;4.65;;;3.50;;
28762;SDS011;15918;51.270;6.522;2022-09-13T03:49:58;4.78;;;3.63;;
28762;SDS011;15918;51.270;6.522;2022-09-13T03:52:25;5.68;;;3.72;;
28762;SDS011;15918;51.270;6.522;2022-09-13T03:54:51;5.13;;;3.42;;
28762;SDS011;15918;51.270;6.522;2022-09-13T03:57:21;4.18;;;3.78;;
28762;SDS011;15918;51.270;6.522;2022-09-13T03:59:54;4.07;;;3.20;;
28762;SDS011;15918;51.270;6.522;2022-09-13T04:02:21;3.75;;;3.45;;
28762;SDS011;15918;51.270;6.522;2022-09-13T04:04:48;3.60;;;3.20;;
28762;SDS011;15918;51.270;6.522;2022-09-13T04:07:15;3.65;;;3.22;;
28762;SDS011;15918;51.270;6.522;2022-09-13T04:09:44;6.10;;;3.92;;
28762;SDS011;15918;51.270;6.522;2022-09-13T04:12:10;4.10;;;3.70;;
28762;SDS011;15918;51.270;6.522;2022-09-13T04:14:37;6.97;;;4.32;;
28762;SDS011;15918;51.270;6.522;2022-09-13T04:17:03;5.25;;;4.13;;
28762;SDS011;15918;51.270;6.522;2022-09-13T04:19:29;4.55;;;3.97;;
28762;SDS011;15918;51.270;6.522;2022-09-13T04:21:55;5.20;;;3.67;;
28762;SDS011;15918;51.270;6.522;2022-09-13T04:24:23;3.80;;;3.15;;
28762;SDS011;15918;51.270;6.522;2022-09-13T04:26:50;7.60;;;3.85;;
28762;SDS011;15918;51.270;6.522;2022-09-13T04:29:17;5.78;;;3.90;;
28762;SDS011;15918;51.270;6.522;2022-09-13T04:31:44;3.78;;;3.40;;
28762;SDS011;15918;51.270;6.522;2022-09-13T04:34:10;5.47;;;4.13;;
28762;SDS011;15918;51.270;6.522;2022-09-13T04:36:35;5.28;;;3.55;;
28762;SDS011;15918;51.270;6.522;2022-09-13T04:39:01;4.03;;;3.55;;
28762;SDS011;15918;51.270;6.522;2022-09-13T04:41:27;4.68;;;3.58;;
28762;SDS011;15918;51.270;6.522;2022-09-13T04:43:55;4.05;;;3.53;;
28762;SDS011;15918;51.270;6.522;2022-09-13T04:46:20;3.95;;;3.40;;
28762;SDS011;15918;51.270;6.522;2022-09-13T04:48:49;5.03;;;3.85;;
28762;SDS011;15918;51.270;6.522;2022-09-13T04:51:15;5.82;;;3.65;;
28762;SDS011;15918;51.270;6.522;2022-09-13T04:53:42;4.75;;;3.90;;
28762;SDS011;15918;51.270;6.522;2022-09-13T04:56:08;7.22;;;3.80;;
28762;SDS011;15918;51.270;6.522;2022-09-13T04:58:34;9.20;;;4.15;;
28762;SDS011;15918;51.270;6.522;2022-09-13T05:01:04;4.40;;;3.42;;
28762;SDS011;15918;51.270;6.522;2022-09-13T05:03:31;3.85;;;3.58;;
28762;SDS011;15918;51.270;6.522;2022-09-13T05:06:02;5.03;;;3.80;;
28762;SDS011;15918;51.270;6.522;2022-09-13T05:08:32;6.90;;;3.70;;
28762;SDS011;15918;51.270;6.522;2022-09-13T05:10:59;5.90;;;3.83;;
28762;SDS011;15918;51.270;6.522;2022-09-13T05:13:25;4.97;;;3.80;;
28762;SDS011;15918;51.270;6.522;2022-09-13T05:15:53;4.32;;;3.92;;
28762;SDS011;15918;51.270;6.522;2022-09-13T05:18:29;7.65;;;4.35;;
28762;SDS011;15918;51.270;6.522;2022-09-13T05:20:56;4.75;;;3.83;;
28762;SDS011;15918;51.270;6.522;2022-09-13T05:23:23;7.53;;;3.90;;
28762;SDS011;15918;51.270;6.522;2022-09-13T05:25:52;5.90;;;3.70;;
28762;SDS011;15918;51.270;6.522;2022-09-13T05:28:19;5.82;;;4.38;;
28762;SDS011;15918;51.270;6.522;2022-09-13T05:30:53;9.48;;;4.22;;
28762;SDS011;15918;51.270;6.522;2022-09-13T05:33:20;7.00;;;3.83;;
28762;SDS011;15918;51.270;6.522;2022-09-13T05:35:45;5.40;;;3.50;;
28762;SDS011;15918;51.270;6.522;2022-09-13T05:38:11;5.57;;;3.50;;
28762;SDS011;15918;51.270;6.522;2022-09-13T05:40:36;5.35;;;3.92;;
28762;SDS011;15918;51.270;6.522;2022-09-13T05:43:03;6.63;;;4.05;;
28762;SDS011;15918;51.270;6.522;2022-09-13T05:45:28;6.15;;;3.80;;
28762;SDS011;15918;51.270;6.522;2022-09-13T05:47:54;4.97;;;4.15;;
28762;SDS011;15918;51.270;6.522;2022-09-13T05:50:19;7.25;;;4.00;;
28762;SDS011;15918;51.270;6.522;2022-09-13T05:52:50;5.93;;;3.90;;
28762;SDS011;15918;51.270;6.522;2022-09-13T05:55:17;6.32;;;4.22;;
28762;SDS011;15918;51.270;6.522;2022-09-13T05:57:42;8.70;;;4.57;;
28762;SDS011;15918;51.270;6.522;2022-09-13T06:00:08;6.97;;;4.43;;
28762;SDS011;15918;51.270;6.522;2022-09-13T06:02:34;5.57;;;4.28;;
28762;SDS011;15918;51.270;6.522;2022-09-13T06:05:00;4.45;;;3.83;;
28762;SDS011;15918;51.270;6.522;2022-09-13T06:07:26;5.40;;;4.10;;
28762;SDS011;15918;51.270;6.522;2022-09-13T06:09:52;7.53;;;3.97;;
28762;SDS011;15918;51.270;6.522;2022-09-13T06:12:18;5.68;;;4.03;;
28762;SDS011;15918;51.270;6.522;2022-09-13T06:14:44;6.20;;;4.18;;
28762;SDS011;15918;51.270;6.522;2022-09-13T06:17:09;6.70;;;4.45;;
28762;SDS011;15918;51.270;6.522;2022-09-13T06:19:35;5.07;;;3.90;;
28762;SDS011;15918;51.270;6.522;2022-09-13T06:22:00;7.03;;;4.93;;
28762;SDS011;15918;51.270;6.522;2022-09-13T06:24:26;6.95;;;4.13;;
28762;SDS011;15918;51.270;6.522;2022-09-13T06:26:52;5.07;;;3.88;;
28762;SDS011;15918;51.270;6.522;2022-09-13T06:29:18;7.47;;;4.00;;
28762;SDS011;15918;51.270;6.522;2022-09-13T06:31:43;4.35;;;3.65;;
28762;SDS011;15918;51.270;6.522;2022-09-13T06:34:10;6.30;;;4.28;;
28762;SDS011;15918;51.270;6.522;2022-09-13T06:36:40;5.20;;;3.90;;
28762;SDS011;15918;51.270;6.522;2022-09-13T06:39:06;4.78;;;3.70;;
28762;SDS011;15918;51.270;6.522;2022-09-13T06:41:32;5.28;;;3.72;;
28762;SDS011;15918;51.270;6.522;2022-09-13T06:43:58;5.22;;;4.57;;
28762;SDS011;15918;51.270;6.522;2022-09-13T06:46:26;6.95;;;4.65;;
28762;SDS011;15918;51.270;6.522;2022-09-13T06:48:54;8.00;;;4.65;;
28762;SDS011;15918;51.270;6.522;2022-09-13T06:51:21;6.70;;;4.25;;
28762;SDS011;15918;51.270;6.522;2022-09-13T06:53:48;8.48;;;4.65;;
28762;SDS011;15918;51.270;6.522;2022-09-13T06:56:16;6.47;;;4.80;;
28762;SDS011;15918;51.270;6.522;2022-09-13T06:58:42;7.75;;;4.82;;
28762;SDS011;15918;51.270;6.522;2022-09-13T07:01:12;8.65;;;4.88;;
28762;SDS011;15918;51.270;6.522;2022-09-13T07:03:40;6.35;;;4.13;;
28762;SDS011;15918;51.270;6.522;2022-09-13T07:06:11;5.88;;;4.30;;
28762;SDS011;15918;51.270;6.522;2022-09-13T07:08:42;8.65;;;4.72;;
28762;SDS011;15918;51.270;6.522;2022-09-13T07:11:09;6.60;;;4.20;;
28762;SDS011;15918;51.270;6.522;2022-09-13T07:13:36;6.57;;;4.47;;
28762;SDS011;15918;51.270;6.522;2022-09-13T07:16:03;5.15;;;4.25;;
28762;SDS011;15918;51.270;6.522;2022-09-13T07:18:30;5.55;;;4.45;;
28762;SDS011;15918;51.270;6.522;2022-09-13T07:21:00;7.47;;;4.82;;
28762;SDS011;15918;51.270;6.522;2022-09-13T07:23:27;10.95;;;5.15;;
28762;SDS011;15918;51.270;6.522;2022-09-13T07:25:54;8.55;;;4.53;;
28762;SDS011;15918;51.270;6.522;2022-09-13T07:28:25;7.38;;;4.57;;
28762;SDS011;15918;51.270;6.522;2022-09-13T07:30:55;7.50;;;4.40;;
28762;SDS011;15918;51.270;6.522;2022-09-13T07:33:23;5.82;;;3.90;;
28762;SDS011;15918;51.270;6.522;2022-09-13T07:35:56;6.53;;;3.90;;
28762;SDS011;15918;51.270;6.522;2022-09-13T07:38:23;5.53;;;4.25;;
28762;SDS011;15918;51.270;6.522;2022-09-13T07:40:55;6.10;;;4.45;;
28762;SDS011;15918;51.270;6.522;2022-09-13T07:43:26;5.93;;;4.13;;
28762;SDS011;15918;51.270;6.522;2022-09-13T07:45:59;6.38;;;4.35;;
28762;SDS011;15918;51.270;6.522;2022-09-13T07:48:28;6.47;;;4.13;;
28762;SDS011;15918;51.270;6.522;2022-09-13T07:53:29;5.65;;;3.88;;
28762;SDS011;15918;51.270;6.522;2022-09-13T07:56:11;4.63;;;3.50;;
28762;SDS011;15918;51.270;6.522;2022-09-13T07:58:42;5.77;;;4.10;;
28762;SDS011;15918;51.270;6.522;2022-09-13T08:01:19;5.70;;;3.83;;
28762;SDS011;15918;51.270;6.522;2022-09-13T08:03:54;6.05;;;3.90;;
28762;SDS011;15918;51.270;6.522;2022-09-13T08:06:20;6.35;;;4.10;;
28762;SDS011;15918;51.270;6.522;2022-09-13T08:08:46;5.07;;;4.07;;
28762;SDS011;15918;51.270;6.522;2022-09-13T08:11:46;4.10;;;3.65;;
28762;SDS011;15918;51.270;6.522;2022-09-13T08:14:06;4.32;;;3.60;;
28762;SDS011;15918;51.270;6.522;2022-09-13T08:16:33;6.30;;;3.85;;
28762;SDS011;15918;51.270;6.522;2022-09-13T08:19:00;6.25;;;4.03;;
28762;SDS011;15918;51.270;6.522;2022-09-13T08:21:35;5.35;;;3.60;;
28762;SDS011;15918;51.270;6.522;2022-09-13T08:24:02;6.80;;;3.50;;
28762;SDS011;15918;51.270;6.522;2022-09-13T08:26:30;6.05;;;3.55;;
28762;SDS011;15918;51.270;6.522;2022-09-13T08:28:58;4.28;;;3.40;;
28762;SDS011;15918;51.270;6.522;2022-09-13T08:31:26;4.65;;;3.58;;
28762;SDS011;15918;51.270;6.522;2022-09-13T08:33:52;3.78;;;3.47;;
28762;SDS011;15918;51.270;6.522;2022-09-13T08:36:19;4.57;;;3.50;;
28762;SDS011;15918;51.270;6.522;2022-09-13T08:38:48;4.95;;;3.38;;
28762;SDS011;15918;51.270;6.522;2022-09-13T08:49:48;9.60;;;4.30;;
28762;SDS011;15918;51.270;6.522;2022-09-13T08:54:56;5.90;;;4.30;;
28762;SDS011;15918;51.270;6.522;2022-09-13T09:05:28;5.78;;;4.47;;
28762;SDS011;15918;51.270;6.522;2022-09-13T09:08:16;9.52;;;5.47;;
28762;SDS011;15918;51.270;6.522;2022-09-13T09:10:56;7.90;;;5.40;;
28762;SDS011;15918;51.270;6.522;2022-09-13T09:13:49;9.18;;;5.40;;
28762;SDS011;15918;51.270;6.522;2022-09-13T09:18:54;8.85;;;5.18;;
28762;SDS011;15918;51.270;6.522;2022-09-13T09:21:23;8.38;;;5.40;;
28762;SDS011;15918;51.270;6.522;2022-09-13T09:23:50;6.55;;;5.50;;
28762;SDS011;15918;51.270;6.522;2022-09-13T09:26:26;10.68;;;5.40;;
28762;SDS011;15918;51.270;6.522;2022-09-13T09:28:58;7.95;;;6.55;;
28762;SDS011;15918;51.270;6.522;2022-09-13T09:39:36;8.52;;;6.25;;
28762;SDS011;15918;51.270;6.522;2022-09-13T09:42:04;9.93;;;6.82;;
28762;SDS011;15918;51.270;6.522;2022-09-13T09:44:42;9.48;;;6.43;;
28762;SDS011;15918;51.270;6.522;2022-09-13T09:47:12;12.50;;;7.05;;
28762;SDS011;15918;51.270;6.522;2022-09-13T09:49:44;8.93;;;7.28;;
28762;SDS011;15918;51.270;6.522;2022-09-13T10:00:20;11.50;;;8.35;;
28762;SDS011;15918;51.270;6.522;2022-09-13T10:02:47;9.07;;;7.75;;
28762;SDS011;15918;51.270;6.522;2022-09-13T10:05:18;11.20;;;6.72;;
28762;SDS011;15918;51.270;6.522;2022-09-13T10:08:05;10.43;;;6.55;;
28762;SDS011;15918;51.270;6.522;2022-09-13T10:13:12;8.82;;;6.97;;
28762;SDS011;15918;51.270;6.522;2022-09-13T10:18:53;9.10;;;7.13;;
28762;SDS011;15918;51.270;6.522;2022-09-13T10:21:39;8.63;;;5.07;;
28762;SDS011;15918;51.270;6.522;2022-09-13T10:24:15;9.82;;;4.90;;
28762;SDS011;15918;51.270;6.522;2022-09-13T10:26:44;7.57;;;5.90;;
28762;SDS011;15918;51.270;6.522;2022-09-13T10:29:14;8.65;;;6.35;;
28762;SDS011;15918;51.270;6.522;2022-09-13T10:31:42;8.65;;;6.93;;
28762;SDS011;15918;51.270;6.522;2022-09-13T10:36:40;8.18;;;6.55;;
28762;SDS011;15918;51.270;6.522;2022-09-13T10:39:16;6.65;;;5.93;;
28762;SDS011;15918;51.270;6.522;2022-09-13T10:41:54;7.90;;;5.35;;
28762;SDS011;15918;51.270;6.522;2022-09-13T10:44:38;7.90;;;5.28;;
28762;SDS011;15918;51.270;6.522;2022-09-13T10:47:21;9.02;;;5.60;;
28762;SDS011;15918;51.270;6.522;2022-09-13T10:49:57;7.90;;;5.15;;
28762;SDS011;15918;51.270;6.522;2022-09-13T10:52:46;6.68;;;5.40;;
28762;SDS011;15918;51.270;6.522;2022-09-13T10:55:19;5.78;;;4.72;;
28762;SDS011;15918;51.270;6.522;2022-09-13T11:00:28;9.73;;;5.57;;
28762;SDS011;15918;51.270;6.522;2022-09-13T11:05:46;7.70;;;5.93;;
28762;SDS011;15918;51.270;6.522;2022-09-13T11:09:05;7.35;;;5.32;;
28762;SDS011;15918;51.270;6.522;2022-09-13T11:16:32;4.90;;;4.43;;
28762;SDS011;15918;51.270;6.522;2022-09-13T11:21:55;6.57;;;4.18;;
28762;SDS011;15918;51.270;6.522;2022-09-13T11:24:40;7.85;;;4.40;;
28762;SDS011;15918;51.270;6.522;2022-09-13T11:27:14;8.25;;;4.70;;
28762;SDS011;15918;51.270;6.522;2022-09-13T11:41:28;7.40;;;4.65;;
28762;SDS011;15918;51.270;6.522;2022-09-13T11:46:57;5.32;;;3.90;;
28762;SDS011;15918;51.270;6.522;2022-09-13T11:52:05;5.45;;;3.65;;
28762;SDS011;15918;51.270;6.522;2022-09-13T11:57:18;4.90;;;3.85;;
28762;SDS011;15918;51.270;6.522;2022-09-13T12:02:58;6.22;;;4.32;;
28762;SDS011;15918;51.270;6.522;2022-09-13T12:05:29;5.50;;;3.80;;
28762;SDS011;15918;51.270;6.522;2022-09-13T12:10:43;6.68;;;3.97;;
28762;SDS011;15918;51.270;6.522;2022-09-13T12:13:58;5.20;;;3.72;;
28762;SDS011;15918;51.270;6.522;2022-09-13T12:16:31;9.25;;;4.60;;
28762;SDS011;15918;51.270;6.522;2022-09-13T12:19:01;4.55;;;4.10;;
28762;SDS011;15918;51.270;6.522;2022-09-13T12:21:42;6.00;;;4.95;;
28762;SDS011;15918;51.270;6.522;2022-09-13T12:24:20;7.53;;;4.85;;
28762;SDS011;15918;51.270;6.522;2022-09-13T12:30:02;8.93;;;5.20;;
28762;SDS011;15918;51.270;6.522;2022-09-13T12:32:38;7.65;;;4.85;;
28762;SDS011;15918;51.270;6.522;2022-09-13T12:35:08;7.03;;;4.82;;
28762;SDS011;15918;51.270;6.522;2022-09-13T13:05:04;4.88;;;3.65;;
28762;SDS011;15918;51.270;6.522;2022-09-13T13:07:42;8.35;;;4.55;;
28762;SDS011;15918;51.270;6.522;2022-09-13T13:13:20;5.65;;;4.20;;
28762;SDS011;15918;51.270;6.522;2022-09-13T13:15:57;3.95;;;3.47;;
28762;SDS011;15918;51.270;6.522;2022-09-13T13:18:29;7.70;;;4.05;;
28762;SDS011;15918;51.270;6.522;2022-09-13T13:29:19;5.85;;;3.35;;
28762;SDS011;15918;51.270;6.522;2022-09-13T13:37:31;7.60;;;4.13;;
28762;SDS011;15918;51.270;6.522;2022-09-13T13:39:42;7.03;;;4.10;;
28762;SDS011;15918;51.270;6.522;2022-09-13T13:42:29;5.20;;;3.33;;
28762;SDS011;15918;51.270;6.522;2022-09-13T14:00:32;6.93;;;3.67;;
28762;SDS011;15918;51.270;6.522;2022-09-13T14:06:05;5.88;;;3.60;;
28762;SDS011;15918;51.270;6.522;2022-09-13T14:11:26;4.13;;;3.20;;
28762;SDS011;15918;51.270;6.522;2022-09-13T14:14:20;5.40;;;3.15;;
28762;SDS011;15918;51.270;6.522;2022-09-13T14:20:15;7.53;;;3.75;;
28762;SDS011;15918;51.270;6.522;2022-09-13T14:22:42;5.57;;;3.70;;
28762;SDS011;15918;51.270;6.522;2022-09-13T14:25:17;4.00;;;3.63;;
28762;SDS011;15918;51.270;6.522;2022-09-13T14:27:47;6.40;;;3.83;;
28762;SDS011;15918;51.270;6.522;2022-09-13T14:32:56;9.93;;;5.05;;
28762;SDS011;15918;51.270;6.522;2022-09-13T14:35:24;7.00;;;5.20;;
28762;SDS011;15918;51.270;6.522;2022-09-13T14:37:50;8.95;;;4.95;;
28762;SDS011;15918;51.270;6.522;2022-09-13T14:40:26;10.77;;;5.00;;
28762;SDS011;15918;51.270;6.522;2022-09-13T14:45:19;4.22;;;3.83;;
28762;SDS011;15918;51.270;6.522;2022-09-13T14:50:25;4.40;;;3.65;;
28762;SDS011;15918;51.270;6.522;2022-09-13T14:52:57;6.47;;;4.00;;
28762;SDS011;15918;51.270;6.522;2022-09-13T14:55:26;5.95;;;3.50;;
28762;SDS011;15918;51.270;6.522;2022-09-13T14:57:58;7.45;;;4.07;;
28762;SDS011;15918;51.270;6.522;2022-09-13T15:00:28;6.53;;;3.75;;
28762;SDS011;15918;51.270;6.522;2022-09-13T15:03:10;5.78;;;4.20;;
28762;SDS011;15918;51.270;6.522;2022-09-13T15:05:38;5.10;;;4.05;;
28762;SDS011;15918;51.270;6.522;2022-09-13T15:11:06;6.07;;;5.20;;
28762;SDS011;15918;51.270;6.522;2022-09-13T15:13:37;7.55;;;4.53;;
28762;SDS011;15918;51.270;6.522;2022-09-13T15:16:25;9.35;;;4.80;;
28762;SDS011;15918;51.270;6.522;2022-09-13T15:21:41;7.55;;;5.32;;
28762;SDS011;15918;51.270;6.522;2022-09-13T15:24:18;7.72;;;5.20;;
28762;SDS011;15918;51.270;6.522;2022-09-13T15:26:47;8.85;;;6.32;;
28762;SDS011;15918;51.270;6.522;2022-09-13T15:29:16;14.35;;;10.02;;
28762;SDS011;15918;51.270;6.522;2022-09-13T15:31:43;18.67;;;12.75;;
28762;SDS011;15918;51.270;6.522;2022-09-13T15:36:44;18.20;;;12.80;;
28762;SDS011;15918;51.270;6.522;2022-09-13T15:41:51;17.55;;;12.93;;
28762;SDS011;15918;51.270;6.522;2022-09-13T15:44:22;16.90;;;11.45;;
28762;SDS011;15918;51.270;6.522;2022-09-13T15:46:50;16.27;;;11.07;;
28762;SDS011;15918;51.270;6.522;2022-09-13T15:49:19;15.13;;;10.45;;
28762;SDS011;15918;51.270;6.522;2022-09-13T15:51:46;17.13;;;10.63;;
28762;SDS011;15918;51.270;6.522;2022-09-13T15:54:18;19.08;;;10.35;;
28762;SDS011;15918;51.270;6.522;2022-09-13T15:56:46;10.52;;;9.43;;
28762;SDS011;15918;51.270;6.522;2022-09-13T16:02:36;11.98;;;8.63;;
28762;SDS011;15918;51.270;6.522;2022-09-13T16:05:02;12.18;;;8.85;;
28762;SDS011;15918;51.270;6.522;2022-09-13T16:07:28;10.18;;;7.57;;
28762;SDS011;15918;51.270;6.522;2022-09-13T16:09:53;8.32;;;6.68;;
28762;SDS011;15918;51.270;6.522;2022-09-13T16:12:19;9.27;;;8.15;;
28762;SDS011;15918;51.270;6.522;2022-09-13T16:14:48;9.93;;;7.47;;
28762;SDS011;15918;51.270;6.522;2022-09-13T16:17:23;9.45;;;7.18;;
28762;SDS011;15918;51.270;6.522;2022-09-13T16:19:51;12.35;;;7.43;;
28762;SDS011;15918;51.270;6.522;2022-09-13T16:22:17;12.82;;;7.38;;
28762;SDS011;15918;51.270;6.522;2022-09-13T16:24:43;8.20;;;6.70;;
28762;SDS011;15918;51.270;6.522;2022-09-13T16:27:10;8.68;;;6.97;;
28762;SDS011;15918;51.270;6.522;2022-09-13T16:29:37;8.98;;;6.68;;
28762;SDS011;15918;51.270;6.522;2022-09-13T16:32:03;11.07;;;7.30;;
28762;SDS011;15918;51.270;6.522;2022-09-13T16:34:29;9.20;;;6.97;;
28762;SDS011;15918;51.270;6.522;2022-09-13T16:36:55;6.82;;;5.85;;
28762;SDS011;15918;51.270;6.522;2022-09-13T16:39:20;8.15;;;5.70;;
28762;SDS011;15918;51.270;6.522;2022-09-13T16:41:46;7.30;;;6.28;;
28762;SDS011;15918;51.270;6.522;2022-09-13T16:44:12;7.72;;;5.50;;
28762;SDS011;15918;51.270;6.522;2022-09-13T16:46:38;7.28;;;5.88;;
28762;SDS011;15918;51.270;6.522;2022-09-13T16:49:04;10.40;;;5.97;;
28762;SDS011;15918;51.270;6.522;2022-09-13T16:51:30;9.32;;;6.72;;
28762;SDS011;15918;51.270;6.522;2022-09-13T16:53:56;6.97;;;6.10;;
28762;SDS011;15918;51.270;6.522;2022-09-13T16:56:22;6.13;;;5.55;;
28762;SDS011;15918;51.270;6.522;2022-09-13T16:58:49;8.68;;;5.35;;
28762;SDS011;15918;51.270;6.522;2022-09-13T17:01:17;8.48;;;7.18;;
28762;SDS011;15918;51.270;6.522;2022-09-13T17:03:44;10.40;;;8.45;;
28762;SDS011;15918;51.270;6.522;2022-09-13T17:06:11;11.20;;;8.68;;
28762;SDS011;15918;51.270;6.522;2022-09-13T17:08:38;10.23;;;6.75;;
28762;SDS011;15918;51.270;6.522;2022-09-13T17:11:09;8.23;;;7.10;;
28762;SDS011;15918;51.270;6.522;2022-09-13T17:13:37;6.47;;;5.88;;
28762;SDS011;15918;51.270;6.522;2022-09-13T17:16:04;9.00;;;6.75;;
28762;SDS011;15918;51.270;6.522;2022-09-13T17:18:32;8.77;;;6.35;;
28762;SDS011;15918;51.270;6.522;2022-09-13T17:20:58;9.20;;;7.63;;
28762;SDS011;15918;51.270;6.522;2022-09-13T17:23:24;10.38;;;7.88;;
28762;SDS011;15918;51.270;6.522;2022-09-13T17:25:50;8.50;;;7.60;;
28762;SDS011;15918;51.270;6.522;2022-09-13T17:28:16;11.13;;;7.38;;
28762;SDS011;15918;51.270;6.522;2022-09-13T17:30:43;10.10;;;7.55;;
28762;SDS011;15918;51.270;6.522;2022-09-13T17:33:10;8.07;;;6.15;;
28762;SDS011;15918;51.270;6.522;2022-09-13T17:35:36;10.10;;;8.82;;
28762;SDS011;15918;51.270;6.522;2022-09-13T17:38:02;8.55;;;7.13;;
28762;SDS011;15918;51.270;6.522;2022-09-13T17:40:29;11.38;;;8.27;;
28762;SDS011;15918;51.270;6.522;2022-09-13T17:42:55;7.30;;;6.50;;
28762;SDS011;15918;51.270;6.522;2022-09-13T17:45:22;8.63;;;6.68;;
28762;SDS011;15918;51.270;6.522;2022-09-13T17:47:51;8.10;;;7.00;;
28762;SDS011;15918;51.270;6.522;2022-09-13T17:50:17;11.30;;;7.15;;
28762;SDS011;15918;51.270;6.522;2022-09-13T17:52:43;8.32;;;7.50;;
28762;SDS011;15918;51.270;6.522;2022-09-13T17:55:09;7.85;;;6.95;;
28762;SDS011;15918;51.270;6.522;2022-09-13T17:57:34;8.77;;;7.88;;
28762;SDS011;15918;51.270;6.522;2022-09-13T18:00:00;9.85;;;8.80;;
28762;SDS011;15918;51.270;6.522;2022-09-13T18:02:28;11.07;;;9.20;;
28762;SDS011;15918;51.270;6.522;2022-09-13T18:04:53;10.18;;;8.10;;
28762;SDS011;15918;51.270;6.522;2022-09-13T18:07:19;11.40;;;8.93;;
28762;SDS011;15918;51.270;6.522;2022-09-13T18:09:44;9.05;;;8.15;;
28762;SDS011;15918;51.270;6.522;2022-09-13T18:12:10;12.82;;;9.48;;
28762;SDS011;15918;51.270;6.522;2022-09-13T18:14:37;11.05;;;9.43;;
28762;SDS011;15918;51.270;6.522;2022-09-13T18:17:03;9.80;;;8.35;;
28762;SDS011;15918;51.270;6.522;2022-09-13T18:19:36;12.30;;;10.20;;
28762;SDS011;15918;51.270;6.522;2022-09-13T18:22:03;16.58;;;9.55;;
28762;SDS011;15918;51.270;6.522;2022-09-13T18:24:29;13.88;;;10.55;;
28762;SDS011;15918;51.270;6.522;2022-09-13T18:26:54;15.70;;;10.45;;
28762;SDS011;15918;51.270;6.522;2022-09-13T18:29:20;17.00;;;10.80;;
28762;SDS011;15918;51.270;6.522;2022-09-13T18:31:46;11.82;;;9.45;;
28762;SDS011;15918;51.270;6.522;2022-09-13T18:34:14;13.77;;;10.60;;
28762;SDS011;15918;51.270;6.522;2022-09-13T18:36:40;11.60;;;10.50;;
28762;SDS011;15918;51.270;6.522;2022-09-13T18:39:06;12.02;;;9.30;;
28762;SDS011;15918;51.270;6.522;2022-09-13T18:41:37;12.82;;;10.93;;
28762;SDS011;15918;51.270;6.522;2022-09-13T18:44:06;12.70;;;11.40;;
28762;SDS011;15918;51.270;6.522;2022-09-13T18:46:34;13.00;;;11.05;;
28762;SDS011;15918;51.270;6.522;2022-09-13T18:49:01;15.65;;;11.68;;
28762;SDS011;15918;51.270;6.522;2022-09-13T18:51:29;14.95;;;11.55;;
28762;SDS011;15918;51.270;6.522;2022-09-13T18:53:57;14.30;;;11.20;;
28762;SDS011;15918;51.270;6.522;2022-09-13T18:56:23;18.50;;;11.20;;
28762;SDS011;15918;51.270;6.522;2022-09-13T18:58:50;14.43;;;10.82;;
28762;SDS011;15918;51.270;6.522;2022-09-13T19:01:23;11.55;;;10.35;;
28762;SDS011;15918;51.270;6.522;2022-09-13T19:03:52;12.70;;;10.80;;